Time;durP1;ratioP1;P1;durP2;ratioP2;P2;SDS_P1;SDS_P2;PMS_P1;PMS_P2;Temp;Humidity;BMP_temperature;BMP_pressure;BME280_temperature;BME280_humidity;BME280_pressure;Samples;Min_cycle;Max_cycle;Signal;HPM_P1;HPM_P2
2023/07/27 04:04:38;;;;;;;1.20;1.20;;;14.50;99.90;;;;;;6149428;23;20484;-81
2023/07/27 04:07:04;;;;;;;1.00;1.00;;;14.50;99.90;;;;;;4956712;28;20509;-61
2023/07/27 04:09:30;;;;;;;1.40;1.30;;;14.50;99.90;;;;;;4954525;28;20499;-60
2023/07/27 04:11:55;;;;;;;2.17;1.93;;;14.50;99.90;;;;;;4954834;28;20719;-59
2023/07/27 04:14:21;;;;;;;1.07;1.00;;;14.50;99.90;;;;;;4954513;28;20169;-61
2023/07/27 04:16:46;;;;;;;1.77;1.67;;;14.50;99.90;;;;;;4954930;29;20650;-61
2023/07/27 04:19:12;;;;;;;2.07;1.73;;;14.60;99.90;;;;;;4955064;28;20219;-60
2023/07/27 04:21:37;;;;;;;1.43;1.33;;;14.60;99.90;;;;;;4958221;29;20168;-60
2023/07/27 04:24:03;;;;;;;1.97;1.87;;;14.60;99.90;;;;;;4958173;29;20182;-60
2023/07/27 04:26:29;;;;;;;1.00;1.00;;;14.60;99.90;;;;;;4957516;28;20322;-59
2023/07/27 04:28:54;;;;;;;3.73;1.90;;;14.60;99.90;;;;;;4958684;29;20191;-61
2023/07/27 04:31:20;;;;;;;2.97;1.90;;;14.50;99.90;;;;;;4950679;29;20181;-59
2023/07/27 04:33:46;;;;;;;1.23;1.13;;;14.40;99.90;;;;;;4949479;29;20709;-59
2023/07/27 04:36:11;;;;;;;1.03;1.03;;;14.40;99.90;;;;;;4957260;28;20196;-60
2023/07/27 04:38:37;;;;;;;2.63;1.40;;;14.40;99.90;;;;;;4958349;28;20212;-59
2023/07/27 04:41:03;;;;;;;1.73;1.63;;;14.40;99.90;;;;;;4955185;29;20177;-60
2023/07/27 04:43:28;;;;;;;1.73;1.63;;;14.40;99.90;;;;;;4938695;29;20180;-60
2023/07/27 04:45:54;;;;;;;1.47;1.37;;;14.40;99.90;;;;;;4939099;29;20200;-61
2023/07/27 04:48:19;;;;;;;1.17;1.17;;;14.40;99.90;;;;;;4938794;29;20191;-60
2023/07/27 04:50:45;;;;;;;1.63;1.50;;;14.40;99.90;;;;;;4939138;29;20184;-61
2023/07/27 04:53:10;;;;;;;1.80;1.70;;;14.50;99.90;;;;;;4958209;28;20180;-61
2023/07/27 04:55:36;;;;;;;2.77;2.57;;;14.50;99.90;;;;;;4957775;28;20196;-61
2023/07/27 04:58:01;;;;;;;1.30;1.17;;;14.60;99.90;;;;;;4957788;29;20214;-59
2023/07/27 05:00:27;;;;;;;1.80;1.20;;;14.60;99.90;;;;;;4958089;29;20173;-59
2023/07/27 05:02:52;;;;;;;1.90;1.80;;;14.70;99.90;;;;;;4940639;29;20181;-59
2023/07/27 05:05:18;;;;;;;1.70;1.60;;;14.80;99.90;;;;;;4938335;29;20321;-61
2023/07/27 05:07:45;;;;;;;1.80;1.20;;;14.90;99.90;;;;;;4938795;29;20188;-60
2023/07/27 05:10:10;;;;;;;1.17;1.17;;;15.10;99.90;;;;;;4937286;29;20173;-60
2023/07/27 05:12:36;;;;;;;1.30;1.20;;;15.10;99.90;;;;;;4953113;29;20428;-62
2023/07/27 05:15:01;;;;;;;1.40;1.30;;;15.10;99.90;;;;;;4957204;28;20209;-60
2023/07/27 05:17:27;;;;;;;1.30;1.20;;;15.20;99.90;;;;;;4957791;28;20201;-66
2023/07/27 05:19:57;;;;;;;1.63;1.53;;;15.20;99.90;;;;;;4957902;28;20171;-61
2023/07/27 05:22:22;;;;;;;1.47;1.37;;;15.30;99.90;;;;;;4943630;28;20181;-62
2023/07/27 05:24:48;;;;;;;1.63;1.53;;;15.30;99.90;;;;;;4937852;29;20783;-66
2023/07/27 05:27:13;;;;;;;2.10;2.00;;;15.40;99.90;;;;;;4938537;29;20177;-62
2023/07/27 05:29:39;;;;;;;0.87;0.80;;;15.50;99.90;;;;;;4944738;29;20252;-62
2023/07/27 05:32:05;;;;;;;1.63;1.00;;;15.50;99.90;;;;;;4956624;28;20242;-62
2023/07/27 05:34:32;;;;;;;1.47;1.40;;;15.60;99.90;;;;;;4956828;28;20205;-62
2023/07/27 05:36:57;;;;;;;1.73;1.63;;;15.70;99.90;;;;;;4957231;29;20482;-60
2023/07/27 05:39:23;;;;;;;2.23;1.33;;;15.80;99.90;;;;;;4954847;29;20550;-61
2023/07/27 05:41:48;;;;;;;1.10;1.10;;;15.80;99.90;;;;;;4950313;28;20187;-60
2023/07/27 05:44:14;;;;;;;1.63;1.50;;;15.90;99.90;;;;;;4975863;28;20226;-62
2023/07/27 05:46:39;;;;;;;1.63;1.53;;;16.10;99.90;;;;;;4970224;28;20169;-64
2023/07/27 05:49:05;;;;;;;1.43;1.30;;;16.20;99.90;;;;;;4976312;28;20212;-60
2023/07/27 05:51:31;;;;;;;2.47;2.27;;;16.40;99.90;;;;;;4956641;28;20209;-67
2023/07/27 05:53:56;;;;;;;1.30;1.20;;;16.50;99.90;;;;;;4955058;28;20434;-61
2023/07/27 05:56:22;;;;;;;1.77;1.67;;;16.60;99.90;;;;;;4956833;29;20664;-59
2023/07/27 05:58:47;;;;;;;1.23;1.13;;;16.70;99.90;;;;;;4956842;29;20280;-61
2023/07/27 06:01:16;;;;;;;1.37;1.27;;;16.80;99.90;;;;;;4956866;28;20174;-59
2023/07/27 06:03:41;;;;;;;1.17;1.17;;;16.90;99.90;;;;;;4955740;28;20540;-59
2023/07/27 06:06:07;;;;;;;1.63;1.53;;;17.00;99.90;;;;;;4956387;29;20467;-59
2023/07/27 06:08:33;;;;;;;1.10;1.00;;;17.00;99.90;;;;;;4956720;29;20181;-59
2023/07/27 06:11:04;;;;;;;1.13;1.10;;;17.10;99.90;;;;;;4957534;28;20182;-61
2023/07/27 06:13:33;;;;;;;1.00;1.00;;;17.20;99.90;;;;;;4936904;29;20442;-60
2023/07/27 06:15:59;;;;;;;1.67;1.57;;;17.30;99.90;;;;;;4937719;29;20445;-62
2023/07/27 06:18:25;;;;;;;1.30;1.30;;;17.40;99.90;;;;;;4956075;28;20473;-60
2023/07/27 06:20:51;;;;;;;1.20;1.20;;;17.40;99.90;;;;;;4948370;28;20788;-60
2023/07/27 06:23:16;;;;;;;1.33;1.23;;;17.50;99.90;;;;;;4951904;29;20189;-59
2023/07/27 06:25:43;;;;;;;1.23;1.20;;;17.50;99.90;;;;;;4955345;28;20272;-61
2023/07/27 06:28:09;;;;;;;1.60;1.50;;;17.60;99.90;;;;;;4955541;28;20172;-60
2023/07/27 06:30:36;;;;;;;1.67;1.40;;;17.70;99.90;;;;;;4949883;28;20426;-60
2023/07/27 06:33:01;;;;;;;0.90;0.90;;;17.80;99.90;;;;;;4935114;29;20520;-61
2023/07/27 06:35:27;;;;;;;2.30;1.47;;;17.90;99.90;;;;;;4936119;29;20841;-59
2023/07/27 06:37:52;;;;;;;1.40;1.30;;;18.10;99.90;;;;;;4936320;29;20304;-61
2023/07/27 06:40:18;;;;;;;2.10;1.10;;;18.30;99.90;;;;;;4968102;28;20305;-60
2023/07/27 06:42:44;;;;;;;1.10;1.10;;;18.50;99.90;;;;;;4951160;28;20256;-59
2023/07/27 06:45:10;;;;;;;1.90;1.13;;;18.70;99.90;;;;;;4952353;29;20484;-59
2023/07/27 06:47:36;;;;;;;1.37;1.10;;;19.00;99.90;;;;;;4936351;29;20467;-59
2023/07/27 06:50:03;;;;;;;1.57;1.47;;;19.30;99.90;;;;;;4940105;29;20776;-59
2023/07/27 06:52:28;;;;;;;1.33;1.27;;;19.50;99.90;;;;;;4953869;28;20454;-59
2023/07/27 06:54:57;;;;;;;1.47;1.37;;;19.60;99.90;;;;;;4954228;29;20451;-59
2023/07/27 06:57:26;;;;;;;0.90;0.90;;;19.60;99.90;;;;;;4952710;29;20185;-60
2023/07/27 06:59:51;;;;;;;1.23;1.13;;;19.60;99.90;;;;;;4940528;28;20417;-60
2023/07/27 07:02:17;;;;;;;1.27;1.17;;;19.60;99.90;;;;;;4953033;29;20422;-61
2023/07/27 07:04:43;;;;;;;1.40;1.30;;;19.60;99.90;;;;;;4954540;29;20651;-60
2023/07/27 07:07:09;;;;;;;0.80;0.80;;;19.60;99.90;;;;;;4955708;28;20207;-62
2023/07/27 07:09:35;;;;;;;1.53;1.37;;;19.60;99.90;;;;;;4955162;28;20424;-62
2023/07/27 07:12:05;;;;;;;1.50;1.40;;;19.60;99.90;;;;;;4955437;28;20165;-61
2023/07/27 07:14:31;;;;;;;0.90;0.90;;;19.50;99.90;;;;;;4952154;28;20440;-59
2023/07/27 07:16:57;;;;;;;1.53;1.00;;;19.50;99.90;;;;;;4936263;29;20412;-59
2023/07/27 07:19:23;;;;;;;1.97;1.37;;;19.50;99.90;;;;;;4936503;29;20523;-60
2023/07/27 07:21:48;;;;;;;1.20;1.20;;;19.40;99.90;;;;;;4954535;28;20457;-60
2023/07/27 07:24:14;;;;;;;1.23;1.17;;;19.40;99.90;;;;;;4954782;29;20176;-61
2023/07/27 07:26:39;;;;;;;1.00;1.00;;;19.40;99.90;;;;;;4955263;28;20165;-62
2023/07/27 07:29:05;;;;;;;1.20;1.10;;;19.50;99.90;;;;;;4954975;29;20184;-62
2023/07/27 07:31:31;;;;;;;1.20;1.20;;;19.50;99.90;;;;;;4955189;29;20188;-62
2023/07/27 07:33:56;;;;;;;0.90;0.90;;;19.60;99.90;;;;;;4947537;29;20173;-60
2023/07/27 07:36:24;;;;;;;1.07;1.00;;;19.60;99.90;;;;;;4949696;29;20197;-59
2023/07/27 07:38:49;;;;;;;1.37;1.23;;;19.60;99.90;;;;;;4945161;28;20216;-61
2023/07/27 07:41:15;;;;;;;0.87;0.87;;;19.70;99.90;;;;;;4952136;28;20409;-59
2023/07/27 07:43:40;;;;;;;1.00;1.00;;;19.80;99.90;;;;;;4954417;29;20181;-61
2023/07/27 07:46:10;;;;;;;1.30;1.20;;;19.80;99.90;;;;;;4955123;29;20189;-60
2023/07/27 07:48:36;;;;;;;1.30;1.20;;;19.90;99.90;;;;;;4954902;28;20184;-60
2023/07/27 07:51:01;;;;;;;0.90;0.90;;;19.90;99.90;;;;;;4955008;29;20413;-60
2023/07/27 07:53:27;;;;;;;1.73;1.63;;;19.90;99.90;;;;;;4940126;29;20260;-61
2023/07/27 07:55:52;;;;;;;1.23;1.17;;;19.90;99.90;;;;;;4954850;29;20208;-61
2023/07/27 07:58:18;;;;;;;1.50;1.40;;;19.90;99.90;;;;;;4943707;29;20231;-61
2023/07/27 08:00:43;;;;;;;1.93;1.70;;;19.80;99.90;;;;;;4939974;29;20173;-59
2023/07/27 08:03:09;;;;;;;1.23;1.07;;;19.70;99.90;;;;;;4940566;29;20181;-61
2023/07/27 08:05:35;;;;;;;1.77;1.67;;;19.60;99.90;;;;;;4967719;28;20249;-59
2023/07/27 08:08:01;;;;;;;1.47;1.10;;;19.50;99.90;;;;;;4977064;28;20195;-61
2023/07/27 08:10:27;;;;;;;1.23;1.20;;;19.40;99.90;;;;;;4958807;28;20177;-61
2023/07/27 08:12:53;;;;;;;1.67;1.57;;;19.40;99.90;;;;;;4942689;29;20501;-60
2023/07/27 08:15:19;;;;;;;1.60;1.50;;;19.30;99.90;;;;;;4939485;29;20215;-61
2023/07/27 08:17:44;;;;;;;1.47;1.37;;;19.30;99.90;;;;;;4939777;29;20530;-60
2023/07/27 08:20:10;;;;;;;1.30;1.20;;;19.20;99.90;;;;;;4947012;29;20220;-59
2023/07/27 08:22:37;;;;;;;1.47;1.37;;;19.20;99.90;;;;;;4958889;29;20214;-63
2023/07/27 08:25:04;;;;;;;1.60;1.50;;;19.10;99.90;;;;;;4942501;28;20422;-62
2023/07/27 08:27:34;;;;;;;1.83;1.73;;;19.10;99.90;;;;;;4939509;29;20421;-62
2023/07/27 08:29:59;;;;;;;1.40;1.40;;;19.10;99.90;;;;;;4939408;29;20410;-59
2023/07/27 08:32:25;;;;;;;1.10;1.00;;;19.10;99.90;;;;;;4939611;29;20468;-60
2023/07/27 08:34:51;;;;;;;1.23;1.13;;;19.10;99.90;;;;;;4938989;29;20228;-60
2023/07/27 08:37:16;;;;;;;1.10;1.00;;;19.10;99.90;;;;;;4947879;29;20636;-60
2023/07/27 08:39:42;;;;;;;1.33;1.23;;;19.20;99.90;;;;;;4967034;28;20335;-61
2023/07/27 08:42:08;;;;;;;1.50;1.40;;;19.30;99.90;;;;;;4967745;28;20173;-62
2023/07/27 08:44:34;;;;;;;1.23;1.13;;;19.40;99.90;;;;;;4946026;28;20560;-59
2023/07/27 08:47:01;;;;;;;1.73;1.63;;;19.50;99.90;;;;;;4944187;29;20399;-61
2023/07/27 08:49:30;;;;;;;1.33;1.33;;;19.70;99.90;;;;;;4958134;28;20539;-60
2023/07/27 08:51:55;;;;;;;1.30;1.20;;;19.90;99.90;;;;;;4957817;28;20399;-60
2023/07/27 08:54:21;;;;;;;1.40;1.30;;;20.00;99.90;;;;;;4957342;28;20467;-62
2023/07/27 08:56:48;;;;;;;1.80;1.70;;;20.10;99.90;;;;;;4957748;29;20184;-60
2023/07/27 08:59:14;;;;;;;1.47;1.37;;;20.20;99.90;;;;;;4938495;29;20208;-61
2023/07/27 09:01:41;;;;;;;0.97;0.97;;;20.30;99.90;;;;;;4938622;29;20412;-59
2023/07/27 09:04:06;;;;;;;0.90;0.90;;;20.30;99.90;;;;;;4938121;29;20413;-62
2023/07/27 09:06:44;;;;;;;0.80;0.80;;;20.30;99.90;;;;;;4936722;29;20524;-61
2023/07/27 09:09:16;;;;;;;1.10;1.10;;;20.30;99.90;;;;;;4938724;29;20181;-62
2023/07/27 09:11:43;;;;;;;1.93;1.83;;;20.30;99.90;;;;;;4938712;29;20420;-62
2023/07/27 09:14:09;;;;;;;1.33;1.23;;;20.30;99.90;;;;;;4957127;28;20486;-63
2023/07/27 09:16:35;;;;;;;0.97;0.93;;;20.20;99.90;;;;;;4957898;28;20794;-60
2023/07/27 09:19:02;;;;;;;1.40;1.30;;;20.10;99.90;;;;;;4957750;28;20467;-62
2023/07/27 09:21:36;;;;;;;0.93;0.90;;;20.10;99.90;;;;;;4957801;28;20383;-58
2023/07/27 09:24:02;;;;;;;0.93;0.93;;;20.00;99.90;;;;;;4955959;29;20419;-61
2023/07/27 09:26:28;;;;;;;1.30;1.30;;;19.80;99.90;;;;;;4951856;29;20421;-60
2023/07/27 09:28:54;;;;;;;1.27;1.17;;;19.60;99.90;;;;;;4938299;29;20177;-62
2023/07/27 09:31:19;;;;;;;2.60;2.40;;;19.40;99.90;;;;;;4938223;29;20608;-60
2023/07/27 09:33:45;;;;;;;2.80;2.53;;;19.20;99.90;;;;;;4937944;29;20497;-62
2023/07/27 09:36:11;;;;;;;1.90;1.67;;;19.00;99.90;;;;;;4938501;29;20205;-62
2023/07/27 09:38:37;;;;;;;1.43;1.37;;;18.90;99.90;;;;;;4938177;29;20215;-62
2023/07/27 09:41:07;;;;;;;1.70;1.30;;;18.80;99.90;;;;;;4942635;29;20677;-60
2023/07/27 09:43:37;;;;;;;2.30;1.27;;;18.70;99.90;;;;;;4956829;28;20505;-58
2023/07/27 09:46:04;;;;;;;1.50;1.40;;;18.60;99.90;;;;;;4957180;28;20432;-60
2023/07/27 09:48:30;;;;;;;1.33;1.27;;;18.60;99.90;;;;;;4957892;29;20427;-61
2023/07/27 09:50:58;;;;;;;1.60;1.50;;;18.60;99.90;;;;;;4957290;29;20419;-62
2023/07/27 09:53:24;;;;;;;1.17;1.17;;;18.50;99.90;;;;;;4957211;28;20529;-59
2023/07/27 09:55:50;;;;;;;3.73;1.90;;;18.50;99.90;;;;;;4951629;28;20449;-62
2023/07/27 09:58:17;;;;;;;1.83;1.67;;;18.50;99.90;;;;;;4937905;29;20452;-58
2023/07/27 10:00:42;;;;;;;1.50;1.37;;;18.50;99.90;;;;;;4937790;29;20417;-62
2023/07/27 10:03:09;;;;;;;1.70;1.27;;;18.60;99.90;;;;;;4937854;29;20399;-61
2023/07/27 10:05:38;;;;;;;1.20;1.13;;;18.70;99.90;;;;;;4937280;29;20206;-61
2023/07/27 10:08:04;;;;;;;0.93;0.90;;;18.80;99.90;;;;;;4937891;29;20373;-60
2023/07/27 10:10:33;;;;;;;1.27;1.13;;;18.90;99.90;;;;;;4943744;29;20486;-63
2023/07/27 10:13:07;;;;;;;1.50;1.40;;;19.10;99.90;;;;;;4956900;29;20432;-59
2023/07/27 10:15:39;;;;;;;1.07;1.00;;;19.20;99.90;;;;;;4954989;28;20432;-63
2023/07/27 10:18:05;;;;;;;1.50;1.40;;;19.40;99.90;;;;;;4955765;28;20543;-61
2023/07/27 10:20:34;;;;;;;1.30;1.17;;;19.60;99.90;;;;;;4956344;29;20474;-63
2023/07/27 10:23:18;;;;;;;1.70;1.10;;;19.70;99.90;;;;;;4956609;28;20227;-61
2023/07/27 10:25:55;;;;;;;2.10;1.90;;;19.80;99.90;;;;;;4945240;28;20441;-61
2023/07/27 10:28:43;;;;;;;0.93;0.93;;;19.90;99.90;;;;;;4937199;29;20738;-58
2023/07/27 10:31:25;;;;;;;1.50;1.17;;;19.90;99.90;;;;;;4937108;29;20420;-61
2023/07/27 10:34:00;;;;;;;1.23;1.13;;;19.90;99.90;;;;;;4939628;29;20399;-62
2023/07/27 10:36:48;;;;;;;1.40;1.27;;;19.90;99.90;;;;;;4967934;28;20409;-61
2023/07/27 10:39:43;;;;;;;2.20;1.33;;;20.00;99.90;;;;;;4962105;28;20467;-62
2023/07/27 10:42:14;;;;;;;2.03;1.40;;;20.00;99.90;;;;;;4952769;28;20436;-59
2023/07/27 10:44:42;;;;;;;1.17;1.07;;;20.00;99.90;;;;;;4935440;29;20445;-61
2023/07/27 10:47:12;;;;;;;1.27;1.20;;;20.00;99.90;;;;;;4935794;29;20512;-60
2023/07/27 10:49:40;;;;;;;1.67;1.57;;;20.00;99.90;;;;;;4935723;29;21042;-60
2023/07/27 10:52:07;;;;;;;1.10;1.00;;;20.00;99.90;;;;;;4936924;29;20458;-61
2023/07/27 10:54:38;;;;;;;0.97;0.93;;;20.00;99.90;;;;;;4951593;28;20997;-60
2023/07/27 10:57:06;;;;;;;0.90;0.90;;;20.00;99.90;;;;;;4950532;28;20951;-61
2023/07/27 10:59:38;;;;;;;0.80;0.80;;;20.10;99.90;;;;;;4936609;29;20812;-60
2023/07/27 11:02:20;;;;;;;1.37;1.27;;;20.20;99.90;;;;;;4937034;29;20758;-62
2023/07/27 11:04:49;;;;;;;1.30;1.20;;;20.30;99.90;;;;;;4953758;29;20445;-61
2023/07/27 11:07:24;;;;;;;0.87;0.87;;;20.40;99.90;;;;;;4938500;28;20471;-61
2023/07/27 11:09:49;;;;;;;1.80;1.60;;;20.50;99.90;;;;;;4942111;29;20440;-59
2023/07/27 11:12:15;;;;;;;0.87;0.87;;;20.60;99.90;;;;;;4937986;29;20425;-62
2023/07/27 11:14:40;;;;;;;1.00;1.00;;;20.60;99.90;;;;;;4937425;29;20197;-61
2023/07/27 11:17:07;;;;;;;1.67;1.57;;;20.80;99.90;;;;;;4937693;29;20177;-61
2023/07/27 11:19:33;;;;;;;1.63;1.53;;;20.80;99.90;;;;;;4937526;29;20245;-61
2023/07/27 11:22:00;;;;;;;1.30;1.20;;;20.90;99.90;;;;;;4937659;29;20450;-61
2023/07/27 11:24:25;;;;;;;1.00;1.00;;;21.00;99.90;;;;;;4948505;29;20436;-61
2023/07/27 11:26:51;;;;;;;1.47;1.37;;;21.10;99.90;;;;;;4953867;28;20416;-59
2023/07/27 11:29:17;;;;;;;1.13;1.00;;;21.20;99.90;;;;;;4955033;28;20173;-61
2023/07/27 11:31:58;;;;;;;1.17;1.13;;;21.30;99.90;;;;;;4955418;28;20184;-60
2023/07/27 11:34:25;;;;;;;1.07;0.90;;;21.30;99.90;;;;;;4943517;28;20488;-61
2023/07/27 11:37:08;;;;;;;2.33;1.57;;;21.30;99.90;;;;;;4955500;28;20762;-61
2023/07/27 11:39:34;;;;;;;0.83;0.83;;;21.40;99.90;;;;;;4953685;28;20434;-60
2023/07/27 11:42:09;;;;;;;1.20;0.90;;;21.50;99.90;;;;;;4951541;28;20985;-60
2023/07/27 11:44:36;;;;;;;1.10;1.10;;;21.70;99.90;;;;;;4935706;29;20515;-59
2023/07/27 11:47:02;;;;;;;0.67;0.67;;;21.70;99.90;;;;;;4946935;29;20473;-59
2023/07/27 11:49:28;;;;;;;1.10;1.00;;;21.90;99.90;;;;;;4955202;29;20455;-60
2023/07/27 11:51:54;;;;;;;1.53;1.43;;;21.90;99.90;;;;;;4955297;28;20633;-59
2023/07/27 11:54:27;;;;;;;2.93;2.73;;;22.00;99.90;;;;;;4939172;29;20411;-59
2023/07/27 11:56:54;;;;;;;1.90;1.80;;;22.10;99.90;;;;;;4941117;28;20255;-59
2023/07/27 11:59:21;;;;;;;1.70;1.60;;;22.10;99.90;;;;;;4974102;28;20999;-60
2023/07/27 12:01:50;;;;;;;1.50;1.40;;;22.10;99.90;;;;;;4965668;28;20419;-61
2023/07/27 12:04:19;;;;;;;1.23;1.23;;;22.20;99.90;;;;;;4954410;28;20913;-58
2023/07/27 12:06:46;;;;;;;1.13;1.13;;;22.20;99.90;;;;;;4954384;28;20878;-63
2023/07/27 12:09:12;;;;;;;1.00;1.00;;;22.20;99.90;;;;;;4954418;29;20396;-59
2023/07/27 12:11:39;;;;;;;1.03;1.03;;;22.20;99.90;;;;;;4954864;28;20774;-60
2023/07/27 12:14:09;;;;;;;1.20;0.97;;;22.10;99.90;;;;;;4949167;28;20436;-60
2023/07/27 12:16:43;;;;;;;1.00;1.00;;;22.10;99.90;;;;;;4937237;29;20527;-58
2023/07/27 12:19:09;;;;;;;1.10;1.10;;;22.10;99.90;;;;;;4954590;28;20461;-60
2023/07/27 12:21:35;;;;;;;0.87;0.87;;;22.10;99.90;;;;;;4953038;29;20407;-60
2023/07/27 12:24:02;;;;;;;1.37;1.20;;;22.00;99.90;;;;;;4954003;28;20263;-61
2023/07/27 12:26:28;;;;;;;1.73;1.63;;;22.00;99.90;;;;;;4954621;28;20431;-61
2023/07/27 12:28:54;;;;;;;8.93;1.40;;;22.00;99.90;;;;;;4954595;28;20415;-60
2023/07/27 12:31:20;;;;;;;1.00;1.00;;;21.90;99.90;;;;;;4954514;29;20940;-60
2023/07/27 12:33:45;;;;;;;1.03;1.00;;;21.90;99.90;;;;;;4954034;29;20195;-60
2023/07/27 12:36:11;;;;;;;1.07;1.07;;;21.70;99.90;;;;;;4954089;28;20207;-59
2023/07/27 12:38:37;;;;;;;1.10;1.00;;;21.60;99.90;;;;;;4952736;28;20204;-59
2023/07/27 12:41:02;;;;;;;1.00;1.00;;;21.50;99.90;;;;;;4955199;28;21026;-61
2023/07/27 12:43:28;;;;;;;1.10;1.10;;;21.50;99.90;;;;;;4957684;29;20526;-60
2023/07/27 12:45:53;;;;;;;1.00;1.00;;;21.40;99.90;;;;;;4957963;28;20281;-61
2023/07/27 12:48:19;;;;;;;1.13;1.10;;;21.30;99.90;;;;;;4957639;28;20182;-60
2023/07/27 12:50:45;;;;;;;0.90;0.90;;;21.30;99.90;;;;;;4957891;29;20199;-65
2023/07/27 12:53:10;;;;;;;1.33;1.17;;;21.30;99.90;;;;;;4953419;28;20187;-63
2023/07/27 12:55:36;;;;;;;1.43;1.30;;;21.30;99.90;;;;;;4955346;28;20284;-65
2023/07/27 12:58:02;;;;;;;3.40;1.03;;;21.30;99.90;;;;;;4958045;29;20228;-63
2023/07/27 13:00:27;;;;;;;1.70;1.60;;;21.30;99.90;;;;;;4957886;28;20168;-62
2023/07/27 13:02:53;;;;;;;1.33;1.20;;;21.30;99.90;;;;;;4950078;29;20423;-63
2023/07/27 13:05:18;;;;;;;1.27;1.27;;;21.20;99.90;;;;;;4937772;29;20193;-64
2023/07/27 13:07:46;;;;;;;1.30;1.20;;;21.20;99.90;;;;;;4943817;29;20177;-62
2023/07/27 13:10:12;;;;;;;0.90;0.90;;;21.20;99.90;;;;;;4957657;28;20174;-61
2023/07/27 13:12:38;;;;;;;1.30;1.20;;;21.20;99.90;;;;;;4943396;28;20431;-62
2023/07/27 13:15:04;;;;;;;1.43;1.33;;;21.20;99.90;;;;;;4974284;28;20966;-63
2023/07/27 13:17:31;;;;;;;0.93;0.80;;;21.30;99.90;;;;;;4954009;28;20179;-64
2023/07/27 13:19:57;;;;;;;1.03;1.03;;;21.40;99.90;;;;;;4957389;29;20453;-66
2023/07/27 13:22:23;;;;;;;0.90;0.90;;;21.50;99.90;;;;;;4971458;28;20766;-63
2023/07/27 13:24:49;;;;;;;0.90;0.90;;;21.60;99.90;;;;;;4956792;28;20193;-64
2023/07/27 13:27:14;;;;;;;1.00;1.00;;;21.60;99.90;;;;;;4950715;28;20403;-60
2023/07/27 13:29:40;;;;;;;1.60;1.50;;;21.70;99.90;;;;;;4955858;28;20187;-63
2023/07/27 13:32:06;;;;;;;1.30;1.20;;;21.80;99.90;;;;;;4957645;28;20662;-65
2023/07/27 13:34:32;;;;;;;2.30;1.30;;;21.90;99.90;;;;;;4956860;28;20203;-61
2023/07/27 13:37:01;;;;;;;2.77;1.47;;;22.00;99.90;;;;;;4947169;29;20461;-62
2023/07/27 13:39:27;;;;;;;1.30;1.20;;;22.00;99.90;;;;;;4955240;29;20498;-61
2023/07/27 13:41:52;;;;;;;1.23;1.13;;;22.20;99.90;;;;;;4956009;29;20506;-62
2023/07/27 13:44:18;;;;;;;3.90;1.13;;;22.20;99.90;;;;;;4956912;29;20924;-61
2023/07/27 13:46:43;;;;;;;0.80;0.80;;;22.30;99.90;;;;;;4957290;29;20290;-63
2023/07/27 13:49:09;;;;;;;1.17;1.10;;;22.30;99.90;;;;;;4951539;29;20216;-60
2023/07/27 13:51:34;;;;;;;1.17;1.07;;;22.30;99.90;;;;;;4952633;28;20184;-62
2023/07/27 13:54:00;;;;;;;0.90;0.90;;;22.20;99.90;;;;;;4956637;29;20180;-62
2023/07/27 13:56:25;;;;;;;1.90;1.23;;;22.10;99.90;;;;;;4956615;29;20208;-61
2023/07/27 13:58:51;;;;;;;1.77;1.67;;;22.10;99.90;;;;;;4956868;29;20294;-62
2023/07/27 14:01:17;;;;;;;1.63;1.53;;;22.00;99.90;;;;;;4956639;29;20169;-63
2023/07/27 14:03:42;;;;;;;1.40;1.30;;;21.90;99.90;;;;;;4954237;28;20699;-63
2023/07/27 14:06:08;;;;;;;1.10;1.10;;;21.90;99.90;;;;;;4951502;29;20219;-65
2023/07/27 14:08:33;;;;;;;1.60;1.30;;;21.80;99.90;;;;;;4955690;28;20631;-62
2023/07/27 14:10:59;;;;;;;1.00;1.00;;;21.70;99.90;;;;;;4956827;29;20180;-63
2023/07/27 14:13:25;;;;;;;0.90;0.90;;;21.60;99.90;;;;;;4955845;29;20608;-70
2023/07/27 14:15:51;;;;;;;0.60;0.60;;;21.50;99.90;;;;;;4956641;29;20401;-62
2023/07/27 14:18:16;;;;;;;1.43;1.33;;;21.50;99.90;;;;;;4956778;29;20256;-64
2023/07/27 14:20:42;;;;;;;1.33;1.20;;;21.50;99.90;;;;;;4950045;29;20536;-62
2023/07/27 14:23:08;;;;;;;1.13;1.13;;;21.50;99.90;;;;;;4940670;29;20659;-63
2023/07/27 14:25:33;;;;;;;0.97;0.97;;;21.40;99.90;;;;;;4956074;28;20197;-62
2023/07/27 14:27:59;;;;;;;1.37;1.30;;;21.40;99.90;;;;;;4956603;29;20435;-62
2023/07/27 14:30:25;;;;;;;1.37;1.27;;;21.40;99.90;;;;;;4954645;28;20212;-62
2023/07/27 14:32:50;;;;;;;0.90;0.90;;;21.30;99.90;;;;;;4940912;29;20190;-62
2023/07/27 14:35:16;;;;;;;0.80;0.80;;;21.30;99.90;;;;;;4946019;29;20677;-62
2023/07/27 14:37:42;;;;;;;1.83;1.20;;;21.30;99.90;;;;;;4967268;28;20189;-63
2023/07/27 14:40:08;;;;;;;0.83;0.83;;;21.30;99.90;;;;;;4937364;29;20621;-63
2023/07/27 14:42:34;;;;;;;0.97;0.97;;;21.30;99.90;;;;;;4937105;29;20199;-62
2023/07/27 14:45:00;;;;;;;1.60;1.33;;;21.40;99.90;;;;;;4936786;29;20780;-61
2023/07/27 14:47:25;;;;;;;1.20;1.20;;;21.40;99.90;;;;;;4936636;29;20415;-63
2023/07/27 14:49:51;;;;;;;0.73;0.73;;;21.40;99.90;;;;;;4936787;29;20188;-63
2023/07/27 14:52:17;;;;;;;0.90;0.90;;;21.50;99.90;;;;;;4952460;29;20181;-62
2023/07/27 14:54:43;;;;;;;1.10;1.00;;;21.60;99.90;;;;;;4955350;29;20674;-62
2023/07/27 14:57:09;;;;;;;2.50;2.30;;;21.70;99.90;;;;;;4970586;28;20413;-62
2023/07/27 14:59:35;;;;;;;1.53;1.43;;;21.80;99.90;;;;;;4955646;28;20267;-62
2023/07/27 15:02:04;;;;;;;1.10;1.00;;;21.90;99.90;;;;;;4954685;29;20178;-62
2023/07/27 15:04:31;;;;;;;1.10;1.00;;;22.00;99.90;;;;;;4947664;28;20196;-62
2023/07/27 15:06:56;;;;;;;0.70;0.70;;;22.00;99.90;;;;;;4936123;29;20471;-63
2023/07/27 15:09:22;;;;;;;1.23;1.13;;;22.00;99.90;;;;;;4935087;29;20430;-62
2023/07/27 15:11:47;;;;;;;1.03;0.90;;;22.00;99.90;;;;;;4946983;29;20201;-62
2023/07/27 15:14:13;;;;;;;1.00;1.00;;;22.00;99.90;;;;;;4955161;29;20169;-62
2023/07/27 15:16:39;;;;;;;0.97;0.97;;;22.10;99.90;;;;;;4938805;29;20276;-61
2023/07/27 15:19:04;;;;;;;0.90;0.90;;;22.00;99.90;;;;;;4940654;29;20233;-62
2023/07/27 15:21:30;;;;;;;0.80;0.80;;;22.10;99.90;;;;;;4955722;29;20178;-62
2023/07/27 15:23:55;;;;;;;1.00;1.00;;;22.10;99.90;;;;;;4954793;29;20268;-62
2023/07/27 15:26:24;;;;;;;0.90;0.90;;;22.10;99.90;;;;;;4953487;29;20207;-62
2023/07/27 15:28:49;;;;;;;1.90;1.73;;;22.30;99.90;;;;;;4955530;29;20264;-63
2023/07/27 15:31:15;;;;;;;0.80;0.80;;;22.30;99.90;;;;;;4949629;28;20978;-63
2023/07/27 15:33:41;;;;;;;1.50;1.20;;;22.30;99.90;;;;;;4935975;29;20178;-63
2023/07/27 15:36:07;;;;;;;1.50;1.10;;;22.40;99.90;;;;;;4936001;29;20441;-62
2023/07/27 15:38:32;;;;;;;1.17;1.17;;;22.40;99.90;;;;;;4936299;29;20207;-62
2023/07/27 15:41:00;;;;;;;1.37;1.27;;;22.60;99.90;;;;;;4949587;28;20252;-62
2023/07/27 15:43:26;;;;;;;1.30;1.30;;;22.70;99.90;;;;;;4953175;28;20187;-65
2023/07/27 15:45:52;;;;;;;2.13;1.40;;;22.80;99.90;;;;;;4950533;28;20447;-62
2023/07/27 15:48:19;;;;;;;1.40;1.30;;;22.80;99.90;;;;;;4936283;29;20742;-63
2023/07/27 15:50:45;;;;;;;0.80;0.80;;;22.80;99.90;;;;;;4936020;29;20179;-62
2023/07/27 15:53:10;;;;;;;1.27;1.17;;;22.80;99.90;;;;;;4936126;29;20394;-62
2023/07/27 15:55:37;;;;;;;1.07;1.03;;;22.70;99.90;;;;;;4934281;29;20448;-63
2023/07/27 15:58:05;;;;;;;0.90;0.90;;;22.60;99.90;;;;;;4953443;29;20211;-62
2023/07/27 16:00:30;;;;;;;1.27;1.10;;;22.70;99.90;;;;;;4939393;28;20429;-65
2023/07/27 16:02:56;;;;;;;1.23;1.13;;;22.60;99.90;;;;;;4935777;29;20432;-62
2023/07/27 16:05:24;;;;;;;1.20;1.20;;;22.60;99.90;;;;;;4935322;29;20566;-63
2023/07/27 16:07:50;;;;;;;1.10;1.00;;;22.50;99.90;;;;;;4935974;29;20639;-62
2023/07/27 16:10:15;;;;;;;1.00;1.00;;;22.50;99.90;;;;;;4935994;29;20386;-62
2023/07/27 16:12:41;;;;;;;0.87;0.87;;;22.50;99.90;;;;;;4934829;29;20908;-66
2023/07/27 16:15:07;;;;;;;1.47;1.10;;;22.40;99.90;;;;;;4935381;29;20230;-66
2023/07/27 16:17:32;;;;;;;0.90;0.90;;;22.50;99.90;;;;;;4939005;29;20554;-64
2023/07/27 16:20:01;;;;;;;0.80;0.80;;;22.50;99.90;;;;;;4955330;29;20207;-65
2023/07/27 16:22:26;;;;;;;1.43;1.33;;;22.60;99.90;;;;;;4958890;28;20181;-64
2023/07/27 16:24:52;;;;;;;1.27;1.27;;;22.60;99.90;;;;;;4958264;29;20430;-66
2023/07/27 16:27:19;;;;;;;1.03;1.03;;;22.60;99.90;;;;;;4957448;29;20180;-66
2023/07/27 16:29:45;;;;;;;1.77;1.10;;;22.60;99.90;;;;;;4945257;28;20215;-67
2023/07/27 16:32:11;;;;;;;1.30;1.30;;;22.50;99.90;;;;;;4956649;29;20415;-65
2023/07/27 16:34:37;;;;;;;1.90;1.40;;;22.40;99.90;;;;;;4940946;28;20424;-64
2023/07/27 16:37:02;;;;;;;1.70;1.47;;;22.40;99.90;;;;;;4942419;29;20177;-63
2023/07/27 16:39:28;;;;;;;1.17;1.07;;;22.30;99.90;;;;;;4958371;29;20280;-64
2023/07/27 16:41:54;;;;;;;1.33;1.20;;;22.30;99.90;;;;;;4951407;29;20193;-62
2023/07/27 16:44:19;;;;;;;1.07;1.07;;;22.20;99.90;;;;;;4942337;29;20546;-62
2023/07/27 16:46:45;;;;;;;1.10;1.00;;;22.20;99.90;;;;;;4957135;28;20182;-63
2023/07/27 16:49:12;;;;;;;1.43;1.33;;;22.20;99.90;;;;;;4958367;29;20208;-62